PGT76LZ LTFJ-EBCI
Flight info
| Callsign | PGT76LZ |
|---|---|
| Flight time | 3h 17m |
| Altitude | 34000 |
| Route | TUDBU1J/06L TUDBU DCT GRN T226 NAVOD DCT INVED DCT MAVIR DCT ARSIN/N0456F360 DCT TAGAS DCT DEXIT DCT RUDNO L604 MOOCE DCT TEKTU DCT TESGA DCT UMUPU T880 ADMUM/N0414F240 T880 BATTY BATY7A |
| Aircraft | A320/M-SDE3FGHIRWY/LB1 |
Departure
| Time | 2026-04-29 14:16 |
|---|---|
| Airport | Istanbul Sabiha Gökçen International Airport (LTFJ) |
Arrival
| Time | 2026-04-29 17:33 |
|---|---|
| Airport | Brussels South Charleroi Airport (EBCI) |
| Time | Latitude | Longitude | Altitude | Speed | Heading |
|---|---|---|---|---|---|
| 2026-04-29 13:36 | 40.90543 | 29.31453 | 311 ft | 0 kts | 334° |
| 2026-04-29 14:01 | 40.90540 | 29.31455 | 311 ft | 3 kts | 334° |
| 2026-04-29 14:01 | 40.90515 | 29.31470 | 310 ft | 4 kts | 335° |
| 2026-04-29 14:01 | 40.90491 | 29.31486 | 311 ft | 4 kts | 328° |
| 2026-04-29 14:02 | 40.90470 | 29.31507 | 311 ft | 4 kts | 317° |
| 2026-04-29 14:02 | 40.90458 | 29.31521 | 311 ft | 1 kts | 316° |
| 2026-04-29 14:02 | 40.90456 | 29.31523 | 311 ft | 0 kts | 316° |
| 2026-04-29 14:04 | 40.90459 | 29.31520 | 311 ft | 2 kts | 317° |
| 2026-04-29 14:04 | 40.90468 | 29.31510 | 311 ft | 1 kts | 320° |
| 2026-04-29 14:05 | 40.90469 | 29.31501 | 311 ft | 0 kts | 271° |
| 2026-04-29 14:08 | 40.90468 | 29.31487 | 311 ft | 4 kts | 264° |
| 2026-04-29 14:08 | 40.90450 | 29.31440 | 311 ft | 3 kts | 236° |
| 2026-04-29 14:08 | 40.90424 | 29.31429 | 311 ft | 7 kts | 176° |
| 2026-04-29 14:08 | 40.90374 | 29.31461 | 311 ft | 7 kts | 152° |
| 2026-04-29 14:09 | 40.90331 | 29.31489 | 310 ft | 8 kts | 154° |
| 2026-04-29 14:09 | 40.90280 | 29.31493 | 311 ft | 8 kts | 216° |
| 2026-04-29 14:09 | 40.90242 | 29.31400 | 311 ft | 18 kts | 244° |
| 2026-04-29 14:09 | 40.90184 | 29.31242 | 310 ft | 19 kts | 243° |
| 2026-04-29 14:10 | 40.90131 | 29.31100 | 311 ft | 16 kts | 244° |
| 2026-04-29 14:10 | 40.90085 | 29.30972 | 310 ft | 14 kts | 244° |
| 2026-04-29 14:10 | 40.90044 | 29.30862 | 311 ft | 13 kts | 244° |
| 2026-04-29 14:10 | 40.89998 | 29.30737 | 311 ft | 16 kts | 243° |
| 2026-04-29 14:11 | 40.89947 | 29.30599 | 310 ft | 17 kts | 245° |
| 2026-04-29 14:11 | 40.89898 | 29.30464 | 310 ft | 18 kts | 243° |
| 2026-04-29 14:11 | 40.89837 | 29.30300 | 309 ft | 20 kts | 244° |
| 2026-04-29 14:11 | 40.89780 | 29.30145 | 309 ft | 18 kts | 244° |
| 2026-04-29 14:12 | 40.89728 | 29.30004 | 308 ft | 16 kts | 244° |
| 2026-04-29 14:12 | 40.89679 | 29.29870 | 307 ft | 17 kts | 244° |
| 2026-04-29 14:12 | 40.89630 | 29.29737 | 307 ft | 16 kts | 244° |
| 2026-04-29 14:12 | 40.89582 | 29.29606 | 305 ft | 16 kts | 244° |
| 2026-04-29 14:13 | 40.89536 | 29.29481 | 303 ft | 14 kts | 244° |
| 2026-04-29 14:13 | 40.89495 | 29.29372 | 304 ft | 12 kts | 244° |
| 2026-04-29 14:13 | 40.89459 | 29.29279 | 302 ft | 11 kts | 233° |
| 2026-04-29 14:13 | 40.89400 | 29.29252 | 303 ft | 8 kts | 172° |
| 2026-04-29 14:14 | 40.89353 | 29.29282 | 304 ft | 8 kts | 152° |
| 2026-04-29 14:14 | 40.89300 | 29.29325 | 301 ft | 9 kts | 131° |
| 2026-04-29 14:14 | 40.89291 | 29.29385 | 305 ft | 5 kts | 82° |
| 2026-04-29 14:14 | 40.89299 | 29.29416 | 304 ft | 3 kts | 62° |
| 2026-04-29 14:15 | 40.89341 | 29.29525 | 305 ft | 37 kts | 64° |
| 2026-04-29 14:15 | 40.89558 | 29.30110 | 309 ft | 102 kts | 64° |
| 2026-04-29 14:15 | 40.89944 | 29.31164 | 311 ft | 151 kts | 64° |
| 2026-04-29 14:15 | 40.90424 | 29.32516 | 731 ft | 162 kts | 62° |
| 2026-04-29 14:16 | 40.90917 | 29.33856 | 1439 ft | 162 kts | 64° |
| 2026-04-29 14:16 | 40.91411 | 29.35193 | 2158 ft | 164 kts | 65° |
| 2026-04-29 14:16 | 40.91931 | 29.36604 | 2487 ft | 180 kts | 64° |
| 2026-04-29 14:16 | 40.92516 | 29.38185 | 2698 ft | 202 kts | 64° |
| 2026-04-29 14:17 | 40.93170 | 29.39951 | 2940 ft | 227 kts | 64° |
| 2026-04-29 14:17 | 40.93879 | 29.41876 | 3427 ft | 243 kts | 64° |
| 2026-04-29 14:17 | 40.94635 | 29.43924 | 4055 ft | 253 kts | 64° |
| 2026-04-29 14:17 | 40.95415 | 29.46041 | 4809 ft | 259 kts | 63° |
| 2026-04-29 14:18 | 40.96212 | 29.48208 | 5600 ft | 264 kts | 63° |
| 2026-04-29 14:18 | 40.97019 | 29.50409 | 6381 ft | 269 kts | 62° |
| 2026-04-29 14:18 | 40.97839 | 29.52650 | 7110 ft | 273 kts | 62° |
| 2026-04-29 14:18 | 40.98673 | 29.54935 | 7794 ft | 279 kts | 62° |
| 2026-04-29 14:19 | 40.99524 | 29.57275 | 8457 ft | 285 kts | 61° |
| 2026-04-29 14:19 | 41.00648 | 29.59430 | 9119 ft | 286 kts | 40° |
| 2026-04-29 14:19 | 41.02312 | 29.60834 | 9781 ft | 285 kts | 16° |
| 2026-04-29 14:19 | 41.04250 | 29.61240 | 10402 ft | 283 kts | 353° |
| 2026-04-29 14:20 | 41.06150 | 29.60606 | 10723 ft | 295 kts | 330° |
| 2026-04-29 14:20 | 41.07768 | 29.58857 | 10890 ft | 312 kts | 306° |
| 2026-04-29 14:20 | 41.09033 | 29.56396 | 11011 ft | 333 kts | 302° |
| 2026-04-29 14:20 | 41.10337 | 29.53784 | 11411 ft | 343 kts | 302° |
| 2026-04-29 14:21 | 41.11665 | 29.51134 | 12023 ft | 347 kts | 302° |
| 2026-04-29 14:21 | 41.13008 | 29.48455 | 12656 ft | 350 kts | 302° |
| 2026-04-29 14:21 | 41.14363 | 29.45750 | 13282 ft | 353 kts | 302° |
| 2026-04-29 14:21 | 41.15731 | 29.43023 | 13908 ft | 357 kts | 302° |
| 2026-04-29 14:22 | 41.17113 | 29.40273 | 14463 ft | 360 kts | 302° |
| 2026-04-29 14:22 | 41.18506 | 29.37502 | 15033 ft | 362 kts | 302° |
| 2026-04-29 14:22 | 41.19895 | 29.34743 | 15592 ft | 364 kts | 302° |
| 2026-04-29 14:22 | 41.21307 | 29.31938 | 16184 ft | 365 kts | 302° |
| 2026-04-29 14:23 | 41.22720 | 29.29128 | 16748 ft | 367 kts | 302° |
| 2026-04-29 14:23 | 41.24120 | 29.26336 | 17280 ft | 368 kts | 302° |
| 2026-04-29 14:23 | 41.25540 | 29.23492 | 17801 ft | 371 kts | 302° |
| 2026-04-29 14:23 | 41.26965 | 29.20631 | 18333 ft | 373 kts | 302° |
| 2026-04-29 14:24 | 41.28390 | 29.17770 | 18788 ft | 375 kts | 302° |
| 2026-04-29 14:24 | 41.29834 | 29.14876 | 19223 ft | 377 kts | 302° |
| 2026-04-29 14:24 | 41.31288 | 29.11963 | 19657 ft | 379 kts | 302° |
| 2026-04-29 14:24 | 41.32752 | 29.09029 | 20095 ft | 381 kts | 302° |
| 2026-04-29 14:25 | 41.34207 | 29.06101 | 20515 ft | 382 kts | 302° |
| 2026-04-29 14:25 | 41.35639 | 29.03208 | 20942 ft | 384 kts | 302° |
| 2026-04-29 14:25 | 41.37113 | 29.00228 | 21397 ft | 385 kts | 302° |
| 2026-04-29 14:25 | 41.38588 | 28.97248 | 21815 ft | 387 kts | 302° |
| 2026-04-29 14:26 | 41.40055 | 28.94287 | 22215 ft | 389 kts | 302° |
| 2026-04-29 14:26 | 41.41446 | 28.91482 | 22591 ft | 391 kts | 302° |
| 2026-04-29 14:26 | 41.42947 | 28.88457 | 22983 ft | 392 kts | 302° |
| 2026-04-29 14:26 | 41.44451 | 28.85413 | 23374 ft | 394 kts | 302° |
| 2026-04-29 14:27 | 41.45958 | 28.82354 | 23762 ft | 396 kts | 302° |
| 2026-04-29 14:27 | 41.47471 | 28.79280 | 24046 ft | 397 kts | 302° |
| 2026-04-29 14:27 | 41.48984 | 28.76207 | 24131 ft | 396 kts | 302° |
| 2026-04-29 14:28 | 41.52020 | 28.70036 | 24608 ft | 400 kts | 302° |
| 2026-04-29 14:28 | 41.53524 | 28.66964 | 24927 ft | 401 kts | 302° |
| 2026-04-29 14:28 | 41.55034 | 28.63882 | 25241 ft | 402 kts | 302° |
| 2026-04-29 14:28 | 41.56561 | 28.60762 | 25543 ft | 403 kts | 301° |
| 2026-04-29 14:29 | 41.58098 | 28.57614 | 25849 ft | 405 kts | 302° |
| 2026-04-29 14:29 | 41.59636 | 28.54463 | 26137 ft | 406 kts | 302° |
| 2026-04-29 14:29 | 41.61183 | 28.51298 | 26430 ft | 407 kts | 302° |
| 2026-04-29 14:29 | 41.62734 | 28.48126 | 26708 ft | 409 kts | 302° |
| 2026-04-29 14:30 | 41.64292 | 28.44938 | 26985 ft | 410 kts | 302° |
| 2026-04-29 14:30 | 41.65830 | 28.41783 | 27252 ft | 411 kts | 302° |
| 2026-04-29 14:30 | 41.67390 | 28.38580 | 27516 ft | 412 kts | 301° |
| 2026-04-29 14:30 | 41.68955 | 28.35356 | 27779 ft | 414 kts | 301° |
| 2026-04-29 14:31 | 41.70520 | 28.32126 | 28050 ft | 414 kts | 301° |
| 2026-04-29 14:31 | 41.72086 | 28.28884 | 28317 ft | 415 kts | 301° |
| 2026-04-29 14:31 | 41.73658 | 28.25633 | 28592 ft | 416 kts | 301° |
| 2026-04-29 14:31 | 41.75228 | 28.22390 | 28956 ft | 414 kts | 301° |
| 2026-04-29 14:32 | 41.76789 | 28.19162 | 29326 ft | 413 kts | 301° |
| 2026-04-29 14:32 | 41.78328 | 28.15973 | 29706 ft | 411 kts | 301° |
| 2026-04-29 14:32 | 41.79867 | 28.12781 | 29960 ft | 401 kts | 301° |
| 2026-04-29 14:32 | 41.81345 | 28.09725 | 30104 ft | 380 kts | 301° |
| 2026-04-29 14:33 | 41.82745 | 28.06836 | 30236 ft | 360 kts | 301° |
| 2026-04-29 14:33 | 41.84071 | 28.04087 | 30342 ft | 341 kts | 301° |
| 2026-04-29 14:33 | 41.85316 | 28.01489 | 30460 ft | 322 kts | 301° |
| 2026-04-29 14:33 | 41.86488 | 27.99040 | 30579 ft | 303 kts | 301° |
| 2026-04-29 14:34 | 41.87593 | 27.96733 | 30690 ft | 284 kts | 300° |
| 2026-04-29 14:34 | 41.88628 | 27.94575 | 30800 ft | 265 kts | 300° |
| 2026-04-29 14:34 | 41.89592 | 27.92569 | 30877 ft | 248 kts | 300° |
| 2026-04-29 14:34 | 41.90504 | 27.90674 | 30544 ft | 246 kts | 300° |
| 2026-04-29 14:35 | 41.91476 | 27.88640 | 29926 ft | 273 kts | 300° |
| 2026-04-29 14:35 | 41.92506 | 27.86465 | 30188 ft | 271 kts | 300° |
| 2026-04-29 14:35 | 41.93497 | 27.84372 | 30804 ft | 261 kts | 300° |
| 2026-04-29 14:35 | 41.94483 | 27.82288 | 30958 ft | 266 kts | 300° |
| 2026-04-29 14:36 | 41.95490 | 27.80165 | 31084 ft | 272 kts | 300° |
| 2026-04-29 14:36 | 41.96523 | 27.78013 | 31220 ft | 277 kts | 302° |
| 2026-04-29 14:36 | 41.97708 | 27.75935 | 31333 ft | 283 kts | 306° |
| 2026-04-29 14:36 | 41.98935 | 27.73877 | 31466 ft | 288 kts | 306° |
| 2026-04-29 14:37 | 42.00196 | 27.71756 | 31585 ft | 293 kts | 306° |
| 2026-04-29 14:37 | 42.01482 | 27.69584 | 31720 ft | 298 kts | 306° |
| 2026-04-29 14:37 | 42.02784 | 27.67386 | 31848 ft | 304 kts | 306° |
| 2026-04-29 14:37 | 42.04115 | 27.65145 | 31979 ft | 309 kts | 306° |
| 2026-04-29 14:38 | 42.05465 | 27.62870 | 32098 ft | 314 kts | 306° |
| 2026-04-29 14:38 | 42.06835 | 27.60558 | 32229 ft | 319 kts | 306° |
| 2026-04-29 14:38 | 42.08225 | 27.58206 | 32358 ft | 324 kts | 306° |
| 2026-04-29 14:38 | 42.09620 | 27.55841 | 32498 ft | 329 kts | 306° |
| 2026-04-29 14:39 | 42.11050 | 27.53412 | 32629 ft | 334 kts | 306° |
| 2026-04-29 14:39 | 42.12502 | 27.50947 | 32758 ft | 339 kts | 306° |
| 2026-04-29 14:39 | 42.13982 | 27.48438 | 32892 ft | 343 kts | 306° |
| 2026-04-29 14:39 | 42.15478 | 27.45907 | 33029 ft | 347 kts | 306° |
| 2026-04-29 14:40 | 42.16988 | 27.43345 | 33192 ft | 351 kts | 306° |
| 2026-04-29 14:40 | 42.18509 | 27.40753 | 33327 ft | 355 kts | 306° |
| 2026-04-29 14:40 | 42.20048 | 27.38124 | 33472 ft | 359 kts | 306° |
| 2026-04-29 14:40 | 42.21604 | 27.35468 | 33600 ft | 362 kts | 306° |
| 2026-04-29 14:41 | 42.23153 | 27.32822 | 33737 ft | 366 kts | 306° |
| 2026-04-29 14:41 | 42.24741 | 27.30112 | 33884 ft | 369 kts | 306° |
| 2026-04-29 14:41 | 42.26341 | 27.27383 | 34056 ft | 372 kts | 306° |
| 2026-04-29 14:42 | 42.29592 | 27.21821 | 34127 ft | 383 kts | 306° |
| 2026-04-29 14:42 | 42.32921 | 27.16115 | 34122 ft | 389 kts | 306° |
| 2026-04-29 14:43 | 42.36246 | 27.10398 | 34125 ft | 390 kts | 306° |
| 2026-04-29 14:43 | 42.39594 | 27.04633 | 34124 ft | 389 kts | 306° |
| 2026-04-29 14:44 | 42.42939 | 26.98879 | 34125 ft | 389 kts | 306° |
| 2026-04-29 14:44 | 42.46276 | 26.93103 | 34121 ft | 389 kts | 306° |
| 2026-04-29 14:45 | 42.49613 | 26.87316 | 34124 ft | 389 kts | 306° |
| 2026-04-29 14:45 | 42.52947 | 26.81533 | 34132 ft | 389 kts | 305° |
| 2026-04-29 14:46 | 42.56255 | 26.75787 | 34120 ft | 389 kts | 305° |
| 2026-04-29 14:46 | 42.59576 | 26.70000 | 34120 ft | 389 kts | 305° |
| 2026-04-29 14:47 | 42.62897 | 26.64210 | 34112 ft | 389 kts | 305° |
| 2026-04-29 14:47 | 42.66214 | 26.58418 | 34118 ft | 388 kts | 305° |
| 2026-04-29 14:48 | 42.69497 | 26.52669 | 34113 ft | 388 kts | 305° |
| 2026-04-29 14:48 | 42.72792 | 26.46870 | 34108 ft | 387 kts | 305° |
| 2026-04-29 14:49 | 42.76101 | 26.41065 | 34103 ft | 388 kts | 305° |
| 2026-04-29 14:49 | 42.79398 | 26.35269 | 34108 ft | 387 kts | 305° |
| 2026-04-29 14:50 | 42.82679 | 26.29465 | 34103 ft | 387 kts | 305° |
| 2026-04-29 14:50 | 42.85928 | 26.23694 | 34130 ft | 386 kts | 305° |
| 2026-04-29 14:51 | 42.88779 | 26.18626 | 34118 ft | 385 kts | 305° |
| 2026-04-29 14:51 | 42.92004 | 26.12909 | 34111 ft | 383 kts | 305° |
| 2026-04-29 14:52 | 42.95240 | 26.07150 | 34107 ft | 382 kts | 305° |
| 2026-04-29 14:52 | 42.98378 | 26.01581 | 34106 ft | 382 kts | 305° |
| 2026-04-29 14:53 | 43.01583 | 25.95850 | 34109 ft | 382 kts | 305° |
| 2026-04-29 14:53 | 43.04788 | 25.90112 | 34111 ft | 382 kts | 305° |
| 2026-04-29 14:54 | 43.08012 | 25.84344 | 34110 ft | 382 kts | 305° |
| 2026-04-29 14:54 | 43.11225 | 25.78568 | 34113 ft | 382 kts | 304° |
| 2026-04-29 14:55 | 43.14417 | 25.72812 | 34108 ft | 382 kts | 304° |
| 2026-04-29 14:55 | 43.17603 | 25.66998 | 34108 ft | 381 kts | 304° |
| 2026-04-29 14:56 | 43.20717 | 25.61111 | 34112 ft | 381 kts | 303° |
| 2026-04-29 14:56 | 43.23821 | 25.55231 | 34134 ft | 380 kts | 303° |
| 2026-04-29 14:57 | 43.26905 | 25.49405 | 34122 ft | 380 kts | 303° |
| 2026-04-29 14:57 | 43.30002 | 25.43549 | 34115 ft | 379 kts | 303° |
| 2026-04-29 14:58 | 43.33101 | 25.37665 | 34096 ft | 379 kts | 303° |
| 2026-04-29 14:58 | 43.36189 | 25.31805 | 34086 ft | 379 kts | 303° |
| 2026-04-29 14:59 | 43.39258 | 25.25979 | 34086 ft | 379 kts | 303° |
| 2026-04-29 14:59 | 43.41732 | 25.21267 | 34088 ft | 379 kts | 303° |
| 2026-04-29 15:00 | 43.44821 | 25.15367 | 34089 ft | 380 kts | 303° |
| 2026-04-29 15:00 | 43.47908 | 25.09463 | 34108 ft | 380 kts | 303° |
| 2026-04-29 15:01 | 43.50987 | 25.03560 | 34098 ft | 380 kts | 303° |
| 2026-04-29 15:01 | 43.54046 | 24.97688 | 34097 ft | 380 kts | 303° |
| 2026-04-29 15:02 | 43.56802 | 24.92382 | 34095 ft | 380 kts | 303° |
| 2026-04-29 15:02 | 43.59873 | 24.86456 | 34131 ft | 380 kts | 303° |
| 2026-04-29 15:03 | 43.62556 | 24.81280 | 34119 ft | 379 kts | 303° |
| 2026-04-29 15:03 | 43.65601 | 24.75388 | 34116 ft | 379 kts | 302° |
| 2026-04-29 15:04 | 43.68528 | 24.69702 | 34115 ft | 379 kts | 303° |
| 2026-04-29 15:04 | 43.71597 | 24.63751 | 34112 ft | 379 kts | 302° |
| 2026-04-29 15:05 | 43.74651 | 24.57798 | 34108 ft | 379 kts | 302° |
| 2026-04-29 15:05 | 43.77953 | 24.52144 | 34114 ft | 381 kts | 307° |
| 2026-04-29 15:06 | 43.81404 | 24.46580 | 34112 ft | 381 kts | 307° |
| 2026-04-29 15:06 | 43.84865 | 24.41008 | 34117 ft | 381 kts | 307° |
| 2026-04-29 15:07 | 43.88318 | 24.35429 | 34116 ft | 381 kts | 307° |
| 2026-04-29 15:07 | 43.91752 | 24.29848 | 34141 ft | 381 kts | 307° |
| 2026-04-29 15:08 | 43.95185 | 24.24252 | 34143 ft | 380 kts | 307° |
| 2026-04-29 15:08 | 43.98591 | 24.18698 | 34138 ft | 380 kts | 307° |
| 2026-04-29 15:09 | 44.02012 | 24.13106 | 34135 ft | 380 kts | 307° |
| 2026-04-29 15:09 | 44.05424 | 24.07506 | 34129 ft | 380 kts | 307° |
| 2026-04-29 15:10 | 44.08832 | 24.01907 | 34125 ft | 379 kts | 307° |
| 2026-04-29 15:10 | 44.12221 | 23.96342 | 34118 ft | 379 kts | 307° |
| 2026-04-29 15:11 | 44.15632 | 23.90738 | 34116 ft | 379 kts | 307° |
| 2026-04-29 15:11 | 44.19040 | 23.85131 | 34114 ft | 379 kts | 307° |
| 2026-04-29 15:12 | 44.22442 | 23.79507 | 34120 ft | 379 kts | 307° |
| 2026-04-29 15:12 | 44.25814 | 23.73923 | 34117 ft | 380 kts | 306° |
| 2026-04-29 15:13 | 44.29208 | 23.68284 | 34115 ft | 380 kts | 306° |
| 2026-04-29 15:13 | 44.32604 | 23.62633 | 34126 ft | 379 kts | 306° |
| 2026-04-29 15:14 | 44.35995 | 23.56980 | 34122 ft | 380 kts | 306° |
| 2026-04-29 15:14 | 44.39388 | 23.51319 | 34121 ft | 380 kts | 306° |
| 2026-04-29 15:15 | 44.42749 | 23.45691 | 34107 ft | 380 kts | 306° |
| 2026-04-29 15:15 | 44.46144 | 23.40010 | 34108 ft | 380 kts | 306° |
| 2026-04-29 15:16 | 44.49468 | 23.34435 | 34116 ft | 382 kts | 307° |
| 2026-04-29 15:16 | 44.52863 | 23.28710 | 34132 ft | 382 kts | 306° |
| 2026-04-29 15:17 | 44.56185 | 23.23113 | 34165 ft | 381 kts | 306° |
| 2026-04-29 15:17 | 44.59574 | 23.17401 | 34147 ft | 381 kts | 306° |
| 2026-04-29 15:18 | 44.62956 | 23.11685 | 34136 ft | 380 kts | 306° |
| 2026-04-29 15:18 | 44.66302 | 23.06004 | 34129 ft | 380 kts | 306° |
| 2026-04-29 15:19 | 44.69669 | 23.00281 | 34127 ft | 380 kts | 306° |
| 2026-04-29 15:19 | 44.73030 | 22.94554 | 34120 ft | 380 kts | 306° |
| 2026-04-29 15:20 | 44.76396 | 22.88806 | 34124 ft | 380 kts | 306° |
| 2026-04-29 15:20 | 44.79760 | 22.83068 | 34115 ft | 379 kts | 306° |
| 2026-04-29 15:21 | 44.83111 | 22.77315 | 34102 ft | 380 kts | 306° |
| 2026-04-29 15:21 | 44.86439 | 22.71602 | 34110 ft | 380 kts | 306° |
| 2026-04-29 15:22 | 44.89788 | 22.65846 | 34143 ft | 379 kts | 306° |
| 2026-04-29 15:22 | 44.93128 | 22.60090 | 34138 ft | 379 kts | 306° |
| 2026-04-29 15:23 | 44.96471 | 22.54319 | 34131 ft | 379 kts | 306° |
| 2026-04-29 15:23 | 44.99791 | 22.48585 | 34118 ft | 380 kts | 306° |
| 2026-04-29 15:24 | 45.03129 | 22.42799 | 34129 ft | 380 kts | 306° |
| 2026-04-29 15:24 | 45.06456 | 22.37002 | 34127 ft | 379 kts | 306° |
| 2026-04-29 15:25 | 45.09779 | 22.31208 | 34137 ft | 379 kts | 306° |
| 2026-04-29 15:25 | 45.13103 | 22.25429 | 34140 ft | 378 kts | 306° |
| 2026-04-29 15:26 | 45.16393 | 22.19685 | 34142 ft | 378 kts | 306° |
| 2026-04-29 15:26 | 45.19693 | 22.13896 | 34189 ft | 378 kts | 306° |
| 2026-04-29 15:27 | 45.22987 | 22.08110 | 34173 ft | 376 kts | 306° |
| 2026-04-29 15:27 | 45.26265 | 22.02340 | 34170 ft | 375 kts | 306° |
| 2026-04-29 15:28 | 45.29511 | 21.96618 | 34170 ft | 374 kts | 306° |
| 2026-04-29 15:28 | 45.32772 | 21.90863 | 34153 ft | 374 kts | 306° |
| 2026-04-29 15:29 | 45.36028 | 21.85105 | 34153 ft | 373 kts | 305° |
| 2026-04-29 15:30 | 45.42521 | 21.73570 | 34136 ft | 374 kts | 306° |
| 2026-04-29 15:30 | 45.45755 | 21.67825 | 34139 ft | 374 kts | 305° |
| 2026-04-29 15:31 | 45.48998 | 21.62045 | 34140 ft | 374 kts | 305° |
| 2026-04-29 15:31 | 45.52242 | 21.56239 | 34184 ft | 374 kts | 305° |
| 2026-04-29 15:32 | 45.55456 | 21.50467 | 34181 ft | 373 kts | 305° |
| 2026-04-29 15:32 | 45.58682 | 21.44676 | 34172 ft | 373 kts | 305° |
| 2026-04-29 15:33 | 45.61894 | 21.38894 | 34423 ft | 374 kts | 305° |
| 2026-04-29 15:33 | 45.63505 | 21.35990 | 34635 ft | 374 kts | 305° |
| 2026-04-29 15:33 | 45.65123 | 21.33073 | 34828 ft | 375 kts | 305° |
| 2026-04-29 15:33 | 45.66746 | 21.30144 | 35012 ft | 376 kts | 305° |
| 2026-04-29 15:34 | 45.68371 | 21.27211 | 35191 ft | 377 kts | 305° |
| 2026-04-29 15:34 | 45.69997 | 21.24268 | 35361 ft | 378 kts | 305° |
| 2026-04-29 15:34 | 45.71629 | 21.21311 | 35519 ft | 379 kts | 305° |
| 2026-04-29 15:34 | 45.73243 | 21.18385 | 35671 ft | 380 kts | 305° |
| 2026-04-29 15:35 | 45.74878 | 21.15415 | 35837 ft | 381 kts | 305° |
| 2026-04-29 15:35 | 45.76518 | 21.12429 | 35993 ft | 381 kts | 306° |
| 2026-04-29 15:35 | 45.78154 | 21.09450 | 36146 ft | 383 kts | 306° |
| 2026-04-29 15:36 | 45.81461 | 21.03441 | 36170 ft | 384 kts | 306° |
| 2026-04-29 15:36 | 45.84755 | 20.97439 | 36192 ft | 384 kts | 306° |
| 2026-04-29 15:37 | 45.88032 | 20.91441 | 36182 ft | 384 kts | 306° |
| 2026-04-29 15:37 | 45.91332 | 20.85390 | 36182 ft | 384 kts | 306° |
| 2026-04-29 15:38 | 45.94628 | 20.79337 | 36179 ft | 385 kts | 306° |
| 2026-04-29 15:38 | 45.97920 | 20.73270 | 36182 ft | 385 kts | 305° |
| 2026-04-29 15:39 | 46.01010 | 20.67565 | 36179 ft | 385 kts | 305° |
| 2026-04-29 15:39 | 46.04301 | 20.61483 | 36180 ft | 385 kts | 306° |
| 2026-04-29 15:40 | 46.07585 | 20.55405 | 36182 ft | 385 kts | 305° |
| 2026-04-29 15:40 | 46.10863 | 20.49302 | 36191 ft | 385 kts | 305° |
| 2026-04-29 15:41 | 46.14137 | 20.43202 | 36183 ft | 385 kts | 305° |
| 2026-04-29 15:41 | 46.17147 | 20.36913 | 36207 ft | 383 kts | 300° |
| 2026-04-29 15:42 | 46.19916 | 20.30344 | 36186 ft | 384 kts | 300° |
| 2026-04-29 15:42 | 46.22679 | 20.23760 | 36180 ft | 384 kts | 300° |
| 2026-04-29 15:43 | 46.25417 | 20.17208 | 36182 ft | 384 kts | 300° |
| 2026-04-29 15:43 | 46.28185 | 20.10588 | 36182 ft | 384 kts | 300° |
| 2026-04-29 15:44 | 46.30950 | 20.03958 | 36186 ft | 385 kts | 300° |
| 2026-04-29 15:44 | 46.33706 | 19.97327 | 36188 ft | 385 kts | 300° |
| 2026-04-29 15:45 | 46.36463 | 19.90689 | 36190 ft | 385 kts | 300° |
| 2026-04-29 15:45 | 46.39204 | 19.84070 | 36192 ft | 385 kts | 299° |
| 2026-04-29 15:46 | 46.41929 | 19.77408 | 36196 ft | 385 kts | 299° |
| 2026-04-29 15:46 | 46.44465 | 19.71080 | 36194 ft | 385 kts | 298° |
| 2026-04-29 15:47 | 46.47074 | 19.64527 | 36182 ft | 385 kts | 298° |
| 2026-04-29 15:47 | 46.49735 | 19.57852 | 36183 ft | 385 kts | 298° |
| 2026-04-29 15:48 | 46.51898 | 19.52415 | 36190 ft | 385 kts | 298° |
| 2026-04-29 15:48 | 46.54574 | 19.45677 | 36190 ft | 385 kts | 298° |
| 2026-04-29 15:49 | 46.57249 | 19.38929 | 36199 ft | 386 kts | 298° |
| 2026-04-29 15:49 | 46.59935 | 19.32163 | 36190 ft | 387 kts | 298° |
| 2026-04-29 15:50 | 46.62596 | 19.25419 | 36184 ft | 387 kts | 298° |
| 2026-04-29 15:50 | 46.65277 | 19.18609 | 36182 ft | 388 kts | 298° |
| 2026-04-29 15:51 | 46.67955 | 19.11783 | 36182 ft | 389 kts | 298° |
| 2026-04-29 15:51 | 46.70475 | 19.05344 | 36185 ft | 389 kts | 298° |
| 2026-04-29 15:52 | 46.73133 | 18.98532 | 36171 ft | 389 kts | 298° |
| 2026-04-29 15:52 | 46.75807 | 18.91682 | 36175 ft | 389 kts | 298° |
| 2026-04-29 15:53 | 46.78466 | 18.84844 | 36181 ft | 389 kts | 298° |
| 2026-04-29 15:53 | 46.81133 | 18.77963 | 36184 ft | 390 kts | 298° |
| 2026-04-29 15:54 | 46.83782 | 18.71118 | 36188 ft | 390 kts | 298° |
| 2026-04-29 15:54 | 46.86447 | 18.64220 | 36180 ft | 390 kts | 298° |
| 2026-04-29 15:55 | 46.89109 | 18.57308 | 36188 ft | 390 kts | 298° |
| 2026-04-29 15:55 | 46.91767 | 18.50377 | 36190 ft | 390 kts | 298° |
| 2026-04-29 15:56 | 46.94420 | 18.43452 | 36210 ft | 391 kts | 298° |
| 2026-04-29 15:56 | 46.97066 | 18.36549 | 36194 ft | 391 kts | 298° |
| 2026-04-29 15:57 | 46.99720 | 18.29588 | 36182 ft | 392 kts | 298° |
| 2026-04-29 15:57 | 47.02368 | 18.22601 | 36180 ft | 393 kts | 298° |
| 2026-04-29 15:58 | 47.05018 | 18.15597 | 36190 ft | 393 kts | 298° |
| 2026-04-29 15:58 | 47.07651 | 18.08631 | 36192 ft | 394 kts | 298° |
| 2026-04-29 15:59 | 47.10304 | 18.01591 | 36196 ft | 394 kts | 298° |
| 2026-04-29 15:59 | 47.12957 | 17.94554 | 36184 ft | 394 kts | 298° |
| 2026-04-29 16:00 | 47.15597 | 17.87502 | 36192 ft | 394 kts | 298° |
| 2026-04-29 16:00 | 47.18222 | 17.80470 | 36200 ft | 394 kts | 298° |
| 2026-04-29 16:01 | 47.20856 | 17.73404 | 36209 ft | 394 kts | 298° |
| 2026-04-29 16:01 | 47.23487 | 17.66339 | 36212 ft | 394 kts | 298° |
| 2026-04-29 16:02 | 47.26128 | 17.59238 | 36198 ft | 395 kts | 298° |
| 2026-04-29 16:02 | 47.28755 | 17.52139 | 36202 ft | 395 kts | 298° |
| 2026-04-29 16:03 | 47.31154 | 17.45630 | 36230 ft | 396 kts | 298° |
| 2026-04-29 16:03 | 47.33519 | 17.39209 | 36216 ft | 397 kts | 298° |
| 2026-04-29 16:04 | 47.36151 | 17.32048 | 36211 ft | 397 kts | 298° |
| 2026-04-29 16:04 | 47.38767 | 17.24889 | 36195 ft | 398 kts | 298° |
| 2026-04-29 16:05 | 47.41392 | 17.17724 | 36199 ft | 399 kts | 298° |
| 2026-04-29 16:05 | 47.44024 | 17.10513 | 36206 ft | 399 kts | 298° |
| 2026-04-29 16:06 | 47.46651 | 17.03282 | 36215 ft | 399 kts | 298° |
| 2026-04-29 16:06 | 47.49258 | 16.96092 | 36218 ft | 400 kts | 298° |
| 2026-04-29 16:07 | 47.51741 | 16.89216 | 36214 ft | 400 kts | 298° |
| 2026-04-29 16:07 | 47.54363 | 16.81946 | 36217 ft | 400 kts | 298° |
| 2026-04-29 16:08 | 47.57018 | 16.74704 | 36218 ft | 401 kts | 302° |
| 2026-04-29 16:08 | 47.59559 | 16.68948 | 36220 ft | 401 kts | 302° |
| 2026-04-29 16:09 | 47.63106 | 16.60914 | 36224 ft | 402 kts | 302° |
| 2026-04-29 16:09 | 47.66171 | 16.53953 | 36229 ft | 402 kts | 302° |
| 2026-04-29 16:10 | 47.69220 | 16.47008 | 36242 ft | 402 kts | 302° |
| 2026-04-29 16:10 | 47.71669 | 16.41393 | 36242 ft | 402 kts | 302° |
| 2026-04-29 16:11 | 47.75203 | 16.33280 | 36248 ft | 402 kts | 302° |
| 2026-04-29 16:11 | 47.77740 | 16.27436 | 36248 ft | 402 kts | 302° |
| 2026-04-29 16:12 | 47.80246 | 16.21662 | 36237 ft | 402 kts | 302° |
| 2026-04-29 16:12 | 47.83274 | 16.14685 | 36257 ft | 402 kts | 302° |
| 2026-04-29 16:13 | 47.86777 | 16.06582 | 36261 ft | 402 kts | 302° |
| 2026-04-29 16:13 | 47.89305 | 16.00715 | 36259 ft | 401 kts | 302° |
| 2026-04-29 16:14 | 47.91937 | 15.94593 | 36241 ft | 401 kts | 302° |
| 2026-04-29 16:14 | 47.94945 | 15.87574 | 36249 ft | 401 kts | 302° |
| 2026-04-29 16:15 | 47.97913 | 15.80642 | 36233 ft | 402 kts | 302° |
| 2026-04-29 16:15 | 48.00900 | 15.73658 | 36234 ft | 403 kts | 302° |
| 2026-04-29 16:16 | 48.03906 | 15.66571 | 36233 ft | 404 kts | 302° |
| 2026-04-29 16:16 | 48.06809 | 15.59368 | 36237 ft | 405 kts | 300° |
| 2026-04-29 16:17 | 48.09557 | 15.52063 | 36239 ft | 406 kts | 299° |
| 2026-04-29 16:17 | 48.12313 | 15.44694 | 36225 ft | 407 kts | 300° |
| 2026-04-29 16:18 | 48.15106 | 15.37319 | 36227 ft | 408 kts | 300° |
| 2026-04-29 16:18 | 48.17914 | 15.29918 | 36234 ft | 408 kts | 300° |
| 2026-04-29 16:19 | 48.20717 | 15.22506 | 36237 ft | 409 kts | 300° |
| 2026-04-29 16:19 | 48.23492 | 15.15135 | 36230 ft | 409 kts | 300° |
| 2026-04-29 16:20 | 48.26289 | 15.07698 | 36229 ft | 410 kts | 300° |
| 2026-04-29 16:20 | 48.29062 | 15.00313 | 36226 ft | 410 kts | 300° |
| 2026-04-29 16:21 | 48.31850 | 14.92848 | 36234 ft | 410 kts | 299° |
| 2026-04-29 16:21 | 48.34629 | 14.85370 | 36252 ft | 410 kts | 300° |
| 2026-04-29 16:22 | 48.37393 | 14.77923 | 36223 ft | 411 kts | 300° |
| 2026-04-29 16:22 | 48.40185 | 14.70393 | 36212 ft | 413 kts | 300° |
| 2026-04-29 16:23 | 48.42982 | 14.62830 | 36223 ft | 414 kts | 300° |
| 2026-04-29 16:23 | 48.45790 | 14.55227 | 36226 ft | 415 kts | 300° |
| 2026-04-29 16:24 | 48.48561 | 14.47657 | 36215 ft | 416 kts | 299° |
| 2026-04-29 16:24 | 48.51347 | 14.40021 | 36188 ft | 416 kts | 300° |
| 2026-04-29 16:25 | 48.54143 | 14.32380 | 36224 ft | 416 kts | 300° |
| 2026-04-29 16:25 | 48.56937 | 14.24712 | 36230 ft | 417 kts | 300° |
| 2026-04-29 16:26 | 48.59725 | 14.17025 | 36232 ft | 417 kts | 299° |
| 2026-04-29 16:26 | 48.62489 | 14.09380 | 36235 ft | 417 kts | 299° |
| 2026-04-29 16:27 | 48.65274 | 14.01671 | 36216 ft | 418 kts | 300° |
| 2026-04-29 16:27 | 48.68004 | 13.94093 | 36247 ft | 419 kts | 300° |
| 2026-04-29 16:28 | 48.70738 | 13.86463 | 36243 ft | 420 kts | 300° |
| 2026-04-29 16:28 | 48.73517 | 13.78670 | 36241 ft | 421 kts | 300° |
| 2026-04-29 16:29 | 48.76332 | 13.70954 | 36237 ft | 421 kts | 304° |
| 2026-04-29 16:29 | 48.79817 | 13.63846 | 36226 ft | 420 kts | 308° |
| 2026-04-29 16:30 | 48.83356 | 13.56771 | 36231 ft | 421 kts | 308° |
| 2026-04-29 16:30 | 48.86893 | 13.49684 | 36239 ft | 422 kts | 308° |
| 2026-04-29 16:31 | 48.90443 | 13.42556 | 36238 ft | 422 kts | 308° |
| 2026-04-29 16:31 | 48.93946 | 13.35484 | 36251 ft | 423 kts | 308° |
| 2026-04-29 16:32 | 48.97481 | 13.28319 | 36241 ft | 423 kts | 308° |
| 2026-04-29 16:32 | 49.01019 | 13.21148 | 36236 ft | 425 kts | 309° |
| 2026-04-29 16:33 | 49.06346 | 13.10315 | 36250 ft | 426 kts | 309° |
| 2026-04-29 16:33 | 49.09879 | 13.03103 | 36253 ft | 427 kts | 309° |
| 2026-04-29 16:34 | 49.13402 | 12.95869 | 36254 ft | 428 kts | 308° |
| 2026-04-29 16:34 | 49.16979 | 12.88517 | 36264 ft | 428 kts | 309° |
| 2026-04-29 16:35 | 49.20525 | 12.81218 | 36260 ft | 428 kts | 308° |
| 2026-04-29 16:35 | 49.24046 | 12.73939 | 36266 ft | 428 kts | 308° |
| 2026-04-29 16:36 | 49.27584 | 12.66611 | 36283 ft | 428 kts | 309° |
| 2026-04-29 16:36 | 49.31126 | 12.59266 | 36278 ft | 429 kts | 309° |
| 2026-04-29 16:37 | 49.34224 | 12.51431 | 36251 ft | 434 kts | 295° |
| 2026-04-29 16:37 | 49.35947 | 12.44181 | 36255 ft | 436 kts | 293° |
| 2026-04-29 16:38 | 49.38336 | 12.34005 | 36261 ft | 437 kts | 293° |
| 2026-04-29 16:38 | 49.40406 | 12.25218 | 36267 ft | 438 kts | 293° |
| 2026-04-29 16:39 | 49.42475 | 12.16417 | 36269 ft | 438 kts | 293° |
| 2026-04-29 16:39 | 49.44529 | 12.07603 | 36251 ft | 438 kts | 293° |
| 2026-04-29 16:40 | 49.46571 | 11.98757 | 36264 ft | 439 kts | 293° |
| 2026-04-29 16:40 | 49.48589 | 11.90002 | 36263 ft | 439 kts | 293° |
| 2026-04-29 16:41 | 49.50633 | 11.81114 | 36263 ft | 439 kts | 293° |
| 2026-04-29 16:41 | 49.52668 | 11.72230 | 36263 ft | 440 kts | 293° |
| 2026-04-29 16:42 | 49.54683 | 11.63345 | 36242 ft | 441 kts | 293° |
| 2026-04-29 16:42 | 49.56745 | 11.54516 | 36255 ft | 439 kts | 298° |
| 2026-04-29 16:43 | 49.59517 | 11.46184 | 36262 ft | 437 kts | 301° |
| 2026-04-29 16:43 | 49.62325 | 11.37849 | 36272 ft | 438 kts | 301° |
| 2026-04-29 16:44 | 49.65113 | 11.29504 | 36249 ft | 438 kts | 301° |
| 2026-04-29 16:44 | 49.67891 | 11.21193 | 36248 ft | 440 kts | 301° |
| 2026-04-29 16:45 | 49.70696 | 11.12786 | 36258 ft | 441 kts | 301° |
| 2026-04-29 16:45 | 49.73492 | 11.04338 | 36269 ft | 441 kts | 301° |
| 2026-04-29 16:46 | 49.76284 | 10.95886 | 36273 ft | 442 kts | 301° |
| 2026-04-29 16:46 | 49.79061 | 10.87468 | 36260 ft | 442 kts | 301° |
| 2026-04-29 16:47 | 49.81846 | 10.78990 | 36271 ft | 443 kts | 301° |
| 2026-04-29 16:47 | 49.84633 | 10.70456 | 36287 ft | 444 kts | 301° |
| 2026-04-29 16:48 | 49.87417 | 10.61916 | 36293 ft | 444 kts | 301° |
| 2026-04-29 16:48 | 49.90166 | 10.53492 | 36297 ft | 444 kts | 301° |
| 2026-04-29 16:49 | 49.92939 | 10.44938 | 36275 ft | 444 kts | 301° |
| 2026-04-29 16:49 | 49.95686 | 10.36395 | 36283 ft | 445 kts | 301° |
| 2026-04-29 16:50 | 49.98453 | 10.27788 | 36292 ft | 446 kts | 301° |
| 2026-04-29 16:50 | 50.01221 | 10.19169 | 36294 ft | 447 kts | 301° |
| 2026-04-29 16:51 | 50.03984 | 10.10500 | 36292 ft | 447 kts | 301° |
| 2026-04-29 16:51 | 50.06749 | 10.01825 | 36274 ft | 447 kts | 301° |
| 2026-04-29 16:52 | 50.09490 | 9.93200 | 36284 ft | 448 kts | 301° |
| 2026-04-29 16:52 | 50.12238 | 9.84505 | 36287 ft | 449 kts | 301° |
| 2026-04-29 16:53 | 50.14990 | 9.75766 | 36290 ft | 449 kts | 301° |
| 2026-04-29 16:53 | 50.17738 | 9.67026 | 36287 ft | 449 kts | 301° |
| 2026-04-29 16:54 | 50.20444 | 9.58373 | 36279 ft | 449 kts | 301° |
| 2026-04-29 16:54 | 50.23179 | 9.49605 | 36288 ft | 449 kts | 300° |
| 2026-04-29 16:55 | 50.25887 | 9.40870 | 36294 ft | 450 kts | 300° |
| 2026-04-29 16:55 | 50.28616 | 9.32056 | 36296 ft | 450 kts | 301° |
| 2026-04-29 16:56 | 50.31338 | 9.23246 | 36267 ft | 451 kts | 301° |
| 2026-04-29 16:56 | 50.34038 | 9.14376 | 36278 ft | 454 kts | 297° |
| 2026-04-29 16:57 | 50.36048 | 9.04848 | 36290 ft | 458 kts | 292° |
| 2026-04-29 16:57 | 50.37908 | 8.95430 | 36296 ft | 459 kts | 292° |
| 2026-04-29 16:58 | 50.39787 | 8.85880 | 36302 ft | 459 kts | 292° |
| 2026-04-29 16:58 | 50.41673 | 8.76316 | 36305 ft | 459 kts | 292° |
| 2026-04-29 16:59 | 50.43575 | 8.66579 | 36306 ft | 459 kts | 291° |
| 2026-04-29 16:59 | 50.44998 | 8.56995 | 36305 ft | 464 kts | 283° |
| 2026-04-29 17:00 | 50.46002 | 8.46989 | 36304 ft | 465 kts | 283° |
| 2026-04-29 17:00 | 50.46987 | 8.36968 | 36306 ft | 465 kts | 283° |
| 2026-04-29 17:01 | 50.47973 | 8.26950 | 36286 ft | 465 kts | 283° |
| 2026-04-29 17:01 | 50.48957 | 8.16900 | 36290 ft | 466 kts | 283° |
| 2026-04-29 17:02 | 50.49924 | 8.06846 | 36294 ft | 466 kts | 283° |
| 2026-04-29 17:02 | 50.50883 | 7.96771 | 36294 ft | 466 kts | 283° |
| 2026-04-29 17:03 | 50.51834 | 7.86774 | 36273 ft | 466 kts | 282° |
| 2026-04-29 17:03 | 50.52782 | 7.76704 | 36284 ft | 466 kts | 282° |
| 2026-04-29 17:04 | 50.53712 | 7.66641 | 36305 ft | 466 kts | 282° |
| 2026-04-29 17:04 | 50.54642 | 7.56546 | 36304 ft | 466 kts | 282° |
| 2026-04-29 17:05 | 50.55564 | 7.46459 | 36294 ft | 466 kts | 282° |
| 2026-04-29 17:05 | 50.55934 | 7.36309 | 36277 ft | 470 kts | 274° |
| 2026-04-29 17:06 | 50.56002 | 7.26048 | 36278 ft | 470 kts | 274° |
| 2026-04-29 17:06 | 50.56057 | 7.15759 | 36286 ft | 471 kts | 273° |
| 2026-04-29 17:07 | 50.55917 | 7.05568 | 36279 ft | 472 kts | 271° |
| 2026-04-29 17:07 | 50.55617 | 6.95129 | 36259 ft | 473 kts | 270° |
| 2026-04-29 17:08 | 50.55325 | 6.84810 | 36255 ft | 473 kts | 270° |
| 2026-04-29 17:08 | 50.55070 | 6.74555 | 36263 ft | 473 kts | 271° |
| 2026-04-29 17:09 | 50.55517 | 6.64338 | 36244 ft | 466 kts | 285° |
| 2026-04-29 17:09 | 50.56754 | 6.54343 | 36247 ft | 466 kts | 284° |
| 2026-04-29 17:10 | 50.57964 | 6.44319 | 36225 ft | 467 kts | 284° |
| 2026-04-29 17:10 | 50.59153 | 6.34282 | 36233 ft | 467 kts | 283° |
| 2026-04-29 17:11 | 50.60327 | 6.24292 | 36241 ft | 467 kts | 284° |
| 2026-04-29 17:11 | 50.61519 | 6.14219 | 36247 ft | 467 kts | 284° |
| 2026-04-29 17:12 | 50.62699 | 6.04160 | 36228 ft | 467 kts | 283° |
| 2026-04-29 17:12 | 50.63671 | 5.95790 | 36218 ft | 469 kts | 283° |
| 2026-04-29 17:13 | 50.64462 | 5.89018 | 35870 ft | 470 kts | 285° |
| 2026-04-29 17:13 | 50.65342 | 5.84068 | 35339 ft | 469 kts | 294° |
| 2026-04-29 17:13 | 50.66663 | 5.79369 | 34422 ft | 471 kts | 301° |
| 2026-04-29 17:13 | 50.68156 | 5.74814 | 33430 ft | 476 kts | 301° |
| 2026-04-29 17:14 | 50.69676 | 5.70168 | 32470 ft | 479 kts | 301° |
| 2026-04-29 17:14 | 50.71205 | 5.65450 | 31426 ft | 485 kts | 301° |
| 2026-04-29 17:14 | 50.72722 | 5.60726 | 30527 ft | 487 kts | 300° |
| 2026-04-29 17:14 | 50.74244 | 5.55942 | 29875 ft | 480 kts | 300° |
| 2026-04-29 17:15 | 50.75704 | 5.51318 | 29232 ft | 465 kts | 300° |
| 2026-04-29 17:15 | 50.77141 | 5.46763 | 28583 ft | 460 kts | 300° |
| 2026-04-29 17:15 | 50.78567 | 5.42261 | 27972 ft | 456 kts | 300° |
| 2026-04-29 17:15 | 50.79984 | 5.37794 | 27356 ft | 453 kts | 300° |
| 2026-04-29 17:16 | 50.81389 | 5.33364 | 26742 ft | 450 kts | 300° |
| 2026-04-29 17:16 | 50.82788 | 5.28947 | 26135 ft | 447 kts | 300° |
| 2026-04-29 17:16 | 50.84173 | 5.24567 | 25540 ft | 444 kts | 300° |
| 2026-04-29 17:16 | 50.85529 | 5.20273 | 24956 ft | 441 kts | 300° |
| 2026-04-29 17:17 | 50.86792 | 5.15992 | 24375 ft | 440 kts | 293° |
| 2026-04-29 17:17 | 50.87627 | 5.11422 | 23811 ft | 439 kts | 282° |
| 2026-04-29 17:17 | 50.87967 | 5.06711 | 23214 ft | 437 kts | 275° |
| 2026-04-29 17:17 | 50.88161 | 5.01955 | 22678 ft | 432 kts | 275° |
| 2026-04-29 17:18 | 50.88370 | 4.97229 | 22171 ft | 427 kts | 275° |
| 2026-04-29 17:18 | 50.88568 | 4.92935 | 21707 ft | 423 kts | 276° |
| 2026-04-29 17:18 | 50.88781 | 4.88324 | 21226 ft | 418 kts | 276° |
| 2026-04-29 17:18 | 50.88985 | 4.83757 | 20733 ft | 414 kts | 276° |
| 2026-04-29 17:19 | 50.89180 | 4.79291 | 20255 ft | 410 kts | 276° |
| 2026-04-29 17:19 | 50.89370 | 4.74807 | 19769 ft | 407 kts | 276° |
| 2026-04-29 17:19 | 50.89538 | 4.70729 | 19309 ft | 405 kts | 276° |
| 2026-04-29 17:19 | 50.89721 | 4.66291 | 18779 ft | 402 kts | 276° |
| 2026-04-29 17:20 | 50.89810 | 4.61874 | 18229 ft | 402 kts | 268° |
| 2026-04-29 17:20 | 50.89331 | 4.57534 | 17704 ft | 401 kts | 254° |
| 2026-04-29 17:20 | 50.88247 | 4.53472 | 17188 ft | 400 kts | 240° |
| 2026-04-29 17:20 | 50.86622 | 4.49923 | 16651 ft | 397 kts | 226° |
| 2026-04-29 17:21 | 50.84610 | 4.47100 | 16139 ft | 394 kts | 216° |
| 2026-04-29 17:21 | 50.82412 | 4.44490 | 15604 ft | 393 kts | 215° |
| 2026-04-29 17:21 | 50.80254 | 4.41933 | 15101 ft | 392 kts | 215° |
| 2026-04-29 17:21 | 50.78078 | 4.39355 | 14582 ft | 391 kts | 215° |
| 2026-04-29 17:22 | 50.75916 | 4.36799 | 14054 ft | 390 kts | 215° |
| 2026-04-29 17:22 | 50.73760 | 4.34299 | 13480 ft | 374 kts | 210° |
| 2026-04-29 17:22 | 50.71486 | 4.32567 | 12993 ft | 357 kts | 195° |
| 2026-04-29 17:22 | 50.69113 | 4.31842 | 12479 ft | 351 kts | 180° |
| 2026-04-29 17:23 | 50.66676 | 4.32085 | 11709 ft | 351 kts | 164° |
| 2026-04-29 17:23 | 50.64421 | 4.33283 | 11113 ft | 336 kts | 150° |
| 2026-04-29 17:23 | 50.62598 | 4.34806 | 10634 ft | 322 kts | 148° |
| 2026-04-29 17:23 | 50.60686 | 4.36403 | 10452 ft | 298 kts | 148° |
| 2026-04-29 17:24 | 50.58898 | 4.37886 | 10166 ft | 287 kts | 148° |
| 2026-04-29 17:24 | 50.57151 | 4.39344 | 9918 ft | 282 kts | 148° |
| 2026-04-29 17:24 | 50.55426 | 4.40790 | 9793 ft | 280 kts | 148° |
| 2026-04-29 17:24 | 50.53690 | 4.42160 | 9583 ft | 282 kts | 156° |
| 2026-04-29 17:25 | 50.52429 | 4.42617 | 9198 ft | 291 kts | 173° |
| 2026-04-29 17:25 | 50.50429 | 4.42166 | 8882 ft | 294 kts | 197° |
| 2026-04-29 17:25 | 50.48696 | 4.40431 | 8224 ft | 300 kts | 224° |
| 2026-04-29 17:25 | 50.47612 | 4.37655 | 7568 ft | 303 kts | 251° |
| 2026-04-29 17:26 | 50.47366 | 4.34410 | 6962 ft | 298 kts | 274° |
| 2026-04-29 17:26 | 50.47524 | 4.31165 | 6193 ft | 300 kts | 274° |
| 2026-04-29 17:26 | 50.47493 | 4.27892 | 5458 ft | 299 kts | 259° |
| 2026-04-29 17:26 | 50.46970 | 4.24862 | 5210 ft | 278 kts | 244° |
| 2026-04-29 17:27 | 50.46200 | 4.22202 | 5072 ft | 256 kts | 239° |
| 2026-04-29 17:27 | 50.45195 | 4.20104 | 4948 ft | 232 kts | 212° |
| 2026-04-29 17:27 | 50.43809 | 4.19057 | 4821 ft | 214 kts | 185° |
| 2026-04-29 17:27 | 50.42369 | 4.19084 | 4426 ft | 208 kts | 159° |
| 2026-04-29 17:28 | 50.41072 | 4.19930 | 4093 ft | 197 kts | 147° |
| 2026-04-29 17:28 | 50.40073 | 4.21227 | 3788 ft | 181 kts | 117° |
| 2026-04-29 17:28 | 50.39730 | 4.22928 | 3549 ft | 165 kts | 90° |
| 2026-04-29 17:28 | 50.39959 | 4.24591 | 3312 ft | 152 kts | 67° |
| 2026-04-29 17:29 | 50.40393 | 4.26044 | 3087 ft | 142 kts | 68° |
| 2026-04-29 17:29 | 50.40789 | 4.27393 | 2933 ft | 131 kts | 68° |
| 2026-04-29 17:29 | 50.41162 | 4.28673 | 2753 ft | 128 kts | 68° |
| 2026-04-29 17:29 | 50.41408 | 4.29516 | 2610 ft | 128 kts | 68° |
| 2026-04-29 17:30 | 50.41895 | 4.31193 | 2381 ft | 127 kts | 68° |
| 2026-04-29 17:30 | 50.42258 | 4.32447 | 2214 ft | 128 kts | 68° |
| 2026-04-29 17:30 | 50.42615 | 4.33724 | 2057 ft | 127 kts | 68° |
| 2026-04-29 17:30 | 50.42971 | 4.34989 | 1879 ft | 127 kts | 68° |
| 2026-04-29 17:31 | 50.43339 | 4.36241 | 1725 ft | 126 kts | 66° |
| 2026-04-29 17:31 | 50.43704 | 4.37485 | 1545 ft | 126 kts | 68° |
| 2026-04-29 17:31 | 50.44070 | 4.38736 | 1381 ft | 126 kts | 68° |
| 2026-04-29 17:31 | 50.44431 | 4.39976 | 1222 ft | 126 kts | 67° |
| 2026-04-29 17:32 | 50.44792 | 4.41214 | 1061 ft | 126 kts | 66° |
| 2026-04-29 17:32 | 50.45151 | 4.42439 | 877 ft | 127 kts | 63° |
| 2026-04-29 17:32 | 50.45521 | 4.43683 | 696 ft | 126 kts | 64° |
| 2026-04-29 17:32 | 50.45878 | 4.44910 | 614 ft | 118 kts | 64° |
| 2026-04-29 17:33 | 50.46174 | 4.45927 | 592 ft | 81 kts | 66° |
| 2026-04-29 17:33 | 50.46334 | 4.46480 | 591 ft | 36 kts | 66° |
| 2026-04-29 17:33 | 50.46422 | 4.46785 | 594 ft | 23 kts | 64° |
| 2026-04-29 17:33 | 50.46474 | 4.46897 | 594 ft | 11 kts | 17° |
| 2026-04-29 17:34 | 50.46555 | 4.46861 | 594 ft | 12 kts | 335° |
| 2026-04-29 17:34 | 50.46600 | 4.46829 | 593 ft | 0 kts | 336° |
| 2026-04-29 17:34 | 50.46600 | 4.46828 | 593 ft | 1 kts | 336° |
| 2026-04-29 17:35 | 50.46616 | 4.46817 | 592 ft | 3 kts | 336° |
| 2026-04-29 17:35 | 50.46664 | 4.46796 | 590 ft | 5 kts | 8° |
| 2026-04-29 17:35 | 50.46693 | 4.46846 | 590 ft | 7 kts | 66° |
| 2026-04-29 17:36 | 50.46717 | 4.46933 | 589 ft | 10 kts | 66° |
| 2026-04-29 17:36 | 50.46749 | 4.47042 | 588 ft | 9 kts | 65° |
| 2026-04-29 17:36 | 50.46773 | 4.47126 | 589 ft | 5 kts | 65° |
| 2026-04-29 17:36 | 50.46789 | 4.47181 | 589 ft | 6 kts | 65° |
| 2026-04-29 17:37 | 50.46795 | 4.47199 | 589 ft | 0 kts | 64° |
| 2026-04-29 17:38 | 50.46799 | 4.47211 | 589 ft | 3 kts | 64° |
| 2026-04-29 17:38 | 50.46811 | 4.47253 | 588 ft | 6 kts | 66° |
| 2026-04-29 17:38 | 50.46831 | 4.47327 | 587 ft | 8 kts | 66° |
| 2026-04-29 17:39 | 50.46876 | 4.47326 | 585 ft | 9 kts | 329° |
| 2026-04-29 17:39 | 50.46913 | 4.47299 | 585 ft | 3 kts | 335° |
| 2026-04-29 17:39 | 50.46922 | 4.47292 | 585 ft | 0 kts | 335° |
| 2026-04-29 17:39 | 50.46927 | 4.47289 | 585 ft | 0 kts | 335° |